Time;durP1;ratioP1;P1;durP2;ratioP2;P2;SDS_P1;SDS_P2;PMS_P1;PMS_P2;Temp;Humidity;BMP_temperature;BMP_pressure;BME280_temperature;BME280_humidity;BME280_pressure;Samples;Min_cycle;Max_cycle;Signal;HPM_P1;HPM_P2
2023/04/16 00:00:32;;;;;;;8.45;3.08;;;;;;;12.14;56.70;102055.72;4941083;28;115150;-79
2023/04/16 00:03:00;;;;;;;7.20;2.83;;;;;;;12.14;56.83;102054.88;4914844;28;123178;-80
2023/04/16 00:05:27;;;;;;;8.00;3.28;;;;;;;12.14;56.81;102053.06;4934679;28;124037;-80
2023/04/16 00:07:54;;;;;;;7.28;2.78;;;;;;;12.13;56.86;102061.97;4931153;28;114696;-80
2023/04/16 00:10:22;;;;;;;9.02;3.22;;;;;;;12.14;56.90;102063.69;4933013;28;114667;-80
2023/04/16 00:12:49;;;;;;;7.78;2.97;;;;;;;12.15;56.93;102065.47;4934931;28;123473;-80
2023/04/16 00:15:16;;;;;;;6.68;3.00;;;;;;;12.15;57.14;102068.13;4932796;28;125580;-80
2023/04/16 00:17:43;;;;;;;7.43;2.88;;;;;;;12.14;57.15;102069.00;4933853;28;112505;-80
2023/04/16 00:20:11;;;;;;;9.25;2.88;;;;;;;12.13;57.27;102056.66;4929180;28;113547;-79
2023/04/16 00:22:38;;;;;;;10.80;3.10;;;;;;;12.13;57.36;102069.94;4930858;28;124747;-80
2023/04/16 00:25:06;;;;;;;11.45;3.47;;;;;;;12.14;57.25;102066.34;4930736;28;124426;-80
2023/04/16 00:27:34;;;;;;;11.07;3.05;;;;;;;12.16;57.32;102056.56;4927352;28;113710;-80
2023/04/16 00:30:02;;;;;;;9.10;3.17;;;;;;;12.16;57.57;102056.56;4931805;28;114008;-79
2023/04/16 00:32:29;;;;;;;9.68;3.00;;;;;;;12.17;57.31;102058.31;4956660;28;122238;-80
2023/04/16 00:35:06;;;;;;;10.15;3.45;;;;;;;12.18;57.61;102059.16;4932311;28;123678;-80
2023/04/16 00:37:33;;;;;;;11.32;3.60;;;;;;;12.17;57.75;102053.00;4939947;28;113734;-79
2023/04/16 00:40:01;;;;;;;10.90;3.40;;;;;;;12.18;57.67;102054.72;5008099;28;113943;-81
2023/04/16 00:42:28;;;;;;;7.68;3.00;;;;;;;12.19;57.62;102047.63;4933314;28;122385;-79
2023/04/16 00:44:55;;;;;;;11.38;3.30;;;;;;;12.19;57.76;102045.84;4939341;28;123829;-82
2023/04/16 00:47:23;;;;;;;10.48;3.22;;;;;;;12.20;57.88;102047.56;4913603;28;115704;-80
2023/04/16 00:49:50;;;;;;;15.23;3.40;;;;;;;12.19;57.79;102056.47;4931209;28;116006;-80
2023/04/16 00:52:17;;;;;;;9.70;3.35;;;;;;;12.20;57.87;102052.88;4930248;28;124141;-80
2023/04/16 00:54:45;;;;;;;6.90;3.17;;;;;;;12.19;57.88;102056.47;4930837;28;123603;-80
2023/04/16 00:57:13;;;;;;;14.75;3.83;;;;;;;12.20;58.01;102055.53;4934903;28;113280;-79
2023/04/16 00:59:41;;;;;;;9.80;3.50;;;;;;;12.19;58.17;102055.59;4934021;28;114352;-80
2023/04/16 01:02:08;;;;;;;14.55;3.70;;;;;;;12.19;58.10;102059.13;4929984;28;124027;-79
2023/04/16 01:04:35;;;;;;;9.63;3.53;;;;;;;12.20;58.17;102060.84;4928401;28;123882;-80
2023/04/16 01:07:03;;;;;;;10.10;3.78;;;;;;;12.19;58.17;102056.47;4929052;28;114471;-80
2023/04/16 01:09:30;;;;;;;9.80;3.90;;;;;;;12.20;58.21;102059.97;4930774;28;113199;-78
2023/04/16 01:11:57;;;;;;;8.73;3.80;;;;;;;12.21;58.29;102062.59;4932469;28;123928;-80
2023/04/16 01:14:24;;;;;;;8.50;3.70;;;;;;;12.20;58.04;102052.88;4942419;28;123912;-80
2023/04/16 01:16:51;;;;;;;9.65;3.35;;;;;;;12.23;58.55;102058.09;4931959;28;112707;-80
2023/04/16 01:19:18;;;;;;;10.32;4.13;;;;;;;12.23;58.38;102058.09;4931842;28;113363;-80
2023/04/16 01:21:45;;;;;;;10.55;3.95;;;;;;;12.23;58.42;102055.44;4931990;28;123957;-80
2023/04/16 01:24:13;;;;;;;12.10;4.15;;;;;;;12.22;58.61;102056.38;4931626;28;124111;-79
2023/04/16 01:26:40;;;;;;;9.68;3.83;;;;;;;12.24;58.75;102064.28;4935799;28;113383;-79
2023/04/16 01:29:07;;;;;;;9.90;3.88;;;;;;;12.24;58.60;102054.53;4934471;28;113421;-80
2023/04/16 01:31:34;;;;;;;11.38;4.22;;;;;;;12.24;58.60;102054.53;4929502;28;124282;-80
2023/04/16 01:34:05;;;;;;;11.18;4.45;;;;;;;12.24;58.67;102054.53;4930864;28;122242;-80
2023/04/16 01:36:34;;;;;;;13.57;3.75;;;;;;;12.25;58.83;102050.94;4930391;28;113428;-80
2023/04/16 01:39:01;;;;;;;11.60;4.13;;;;;;;12.25;58.90;102050.94;4944678;28;113998;-79
2023/04/16 01:41:30;;;;;;;11.93;4.28;;;;;;;12.23;58.81;102047.47;4946023;28;123125;-80
2023/04/16 01:43:57;;;;;;;13.30;4.32;;;;;;;12.24;59.06;102043.91;4942682;28;123888;-79
2023/04/16 01:46:30;;;;;;;16.30;4.43;;;;;;;12.25;59.08;102050.94;4948308;28;114442;-80
2023/04/16 01:48:57;;;;;;;12.05;4.50;;;;;;;12.27;59.29;102048.25;4932011;28;115056;-80
2023/04/16 01:51:26;;;;;;;12.93;4.97;;;;;;;12.27;59.11;102049.09;4933411;28;122097;-80
2023/04/16 01:53:54;;;;;;;12.23;4.72;;;;;;;12.29;58.95;102056.16;4932963;28;123599;-80
2023/04/16 01:56:21;;;;;;;12.98;4.55;;;;;;;12.30;59.05;102052.56;4930714;28;113782;-80
2023/04/16 01:58:48;;;;;;;12.23;4.80;;;;;;;12.30;59.14;102057.88;4949829;28;113533;-80
2023/04/16 02:01:17;;;;;;;14.52;5.25;;;;;;;12.31;59.05;102064.97;4948361;28;122425;-80
2023/04/16 02:03:46;;;;;;;14.82;5.20;;;;;;;12.31;59.22;102054.31;4932191;28;121820;-79
2023/04/16 02:06:14;;;;;;;12.07;5.00;;;;;;;12.31;59.15;102070.25;4922589;28;113711;-80
2023/04/16 02:08:42;;;;;;;10.07;4.75;;;;;;;12.31;59.26;102059.66;4935540;28;112872;-79
2023/04/16 02:11:09;;;;;;;14.77;5.15;;;;;;;12.29;59.35;102053.50;4916640;28;123263;-80
2023/04/16 02:13:37;;;;;;;16.08;5.15;;;;;;;12.29;59.39;102061.47;4933766;28;123201;-80
2023/04/16 02:16:04;;;;;;;13.43;5.35;;;;;;;12.31;59.57;102054.31;4931626;28;113500;-80
2023/04/16 02:18:53;;;;;;;12.02;5.32;;;;;;;12.32;59.30;102061.34;4939384;28;113411;-80
2023/04/16 02:21:22;;;;;;;15.90;5.45;;;;;;;12.32;59.34;102061.34;4956095;28;122746;-80
2023/04/16 02:23:50;;;;;;;16.77;6.00;;;;;;;12.34;59.60;102062.19;4941423;28;123861;-80
2023/04/16 02:26:21;;;;;;;16.45;6.53;;;;;;;12.35;59.48;102062.13;4946340;28;114009;-80
2023/04/16 02:28:49;;;;;;;17.88;6.60;;;;;;;12.37;59.52;102064.75;4901406;28;114436;-79
2023/04/16 02:31:21;;;;;;;18.40;6.70;;;;;;;12.38;59.66;102063.84;4917573;28;123431;-80
2023/04/16 02:33:48;;;;;;;17.50;6.57;;;;;;;12.38;59.76;102062.03;4932288;28;123854;-80
2023/04/16 02:36:15;;;;;;;26.10;7.22;;;;;;;12.39;59.77;102057.59;4946620;28;113316;-80
2023/04/16 02:38:42;;;;;;;23.60;7.72;;;;;;;12.39;59.75;102057.59;4932757;28;113449;-79
2023/04/16 02:41:09;;;;;;;21.48;7.28;;;;;;;12.38;59.65;102055.88;4933216;28;124376;-80
2023/04/16 02:43:37;;;;;;;21.55;7.63;;;;;;;12.39;59.79;102057.59;4934789;28;122412;-80
2023/04/16 02:46:04;;;;;;;23.85;8.30;;;;;;;12.39;59.99;102062.91;4934946;28;114985;-79
2023/04/16 02:48:31;;;;;;;22.08;7.80;;;;;;;12.40;59.63;102064.66;4933136;28;114296;-80
2023/04/16 02:50:58;;;;;;;20.23;8.35;;;;;;;12.40;60.01;102062.00;4935349;28;124079;-80
2023/04/16 02:53:26;;;;;;;20.27;8.00;;;;;;;12.39;59.97;102066.41;4932552;28;124029;-80
2023/04/16 02:55:54;;;;;;;23.50;9.15;;;;;;;12.38;59.98;102055.88;4925643;28;112655;-80
2023/04/16 02:58:24;;;;;;;24.83;8.85;;;;;;;12.39;60.15;102063.75;4937370;28;112053;-80
2023/04/16 03:00:53;;;;;;;24.65;8.73;;;;;;;12.41;60.30;102061.06;4935382;28;122783;-80
2023/04/16 03:03:20;;;;;;;24.55;8.73;;;;;;;12.41;60.00;102061.94;4930163;28;123177;-80
2023/04/16 03:05:47;;;;;;;25.35;9.25;;;;;;;12.42;60.12;102062.81;4932428;28;114607;-80
2023/04/16 03:08:15;;;;;;;22.88;9.18;;;;;;;12.42;60.15;102062.81;4931802;28;114349;-80
2023/04/16 03:10:42;;;;;;;26.83;9.13;;;;;;;12.41;60.20;102063.72;4931713;28;123545;-80
2023/04/16 03:13:09;;;;;;;22.63;9.25;;;;;;;12.41;60.31;102071.69;4931400;28;124081;-80
2023/04/16 03:15:37;;;;;;;23.67;8.48;;;;;;;12.41;60.16;102071.69;4941592;28;114490;-80
2023/04/16 03:18:04;;;;;;;25.63;9.13;;;;;;;12.42;60.27;102073.44;4947471;28;113255;-80
2023/04/16 03:20:32;;;;;;;24.65;9.27;;;;;;;12.41;60.35;102082.31;4932419;28;122371;-78
2023/04/16 03:22:59;;;;;;;23.13;8.50;;;;;;;12.44;60.20;102082.22;4931502;28;122411;-80
2023/04/16 03:25:27;;;;;;;29.75;9.63;;;;;;;12.44;60.47;102079.56;4934697;28;112692;-80
2023/04/16 03:27:54;;;;;;;26.55;9.50;;;;;;;12.44;60.15;102077.78;4941845;28;114666;-80
2023/04/16 03:30:22;;;;;;;24.33;9.10;;;;;;;12.45;60.34;102083.94;4932907;28;124294;-80
2023/04/16 03:32:49;;;;;;;26.65;9.25;;;;;;;12.47;60.47;102082.13;5017067;28;121837;-80
2023/04/16 03:35:16;;;;;;;23.40;9.60;;;;;;;12.48;60.56;102083.00;4941658;27;113758;-80
2023/04/16 03:37:44;;;;;;;25.15;9.00;;;;;;;12.48;60.45;102083.00;4916687;28;113082;-80
2023/04/16 03:40:11;;;;;;;27.58;9.38;;;;;;;12.47;60.44;102082.13;4912219;28;122791;-80
2023/04/16 03:42:39;;;;;;;23.67;8.82;;;;;;;12.46;60.68;102085.69;4930046;28;123169;-80
2023/04/16 03:45:08;;;;;;;28.20;9.38;;;;;;;12.47;60.40;102087.44;4931054;28;113907;-80
2023/04/16 03:47:36;;;;;;;29.33;9.35;;;;;;;12.46;60.56;102085.69;4931007;28;113487;-80
2023/04/16 03:50:03;;;;;;;29.08;9.40;;;;;;;12.44;60.58;102084.88;4932134;28;123908;-80
2023/04/16 03:52:31;;;;;;;30.45;9.60;;;;;;;12.45;60.62;102084.84;4929293;28;122279;-79
2023/04/16 03:54:58;;;;;;;31.55;9.85;;;;;;;12.46;60.68;102091.00;4932841;28;114626;-79
2023/04/16 03:57:29;;;;;;;32.03;9.95;;;;;;;12.46;60.61;102086.56;4930790;28;113345;-79
2023/04/16 04:00:03;;;;;;;27.77;9.60;;;;;;;12.45;60.55;102086.59;4926358;28;124326;-80
2023/04/16 04:02:40;;;;;;;30.38;9.80;;;;;;;12.45;60.61;102086.59;4929103;28;123652;-80
2023/04/16 04:05:14;;;;;;;27.43;9.93;;;;;;;12.45;60.61;102086.59;4943208;28;114764;-80
2023/04/16 04:07:43;;;;;;;34.88;9.93;;;;;;;12.43;60.51;102088.44;4933674;28;115066;-80
2023/04/16 04:10:10;;;;;;;32.15;10.27;;;;;;;12.42;60.75;102094.69;4931167;28;124266;-80
2023/04/16 04:12:40;;;;;;;28.70;9.85;;;;;;;12.42;60.67;102089.38;4931020;28;122909;-80
2023/04/16 04:15:08;;;;;;;28.77;10.38;;;;;;;12.40;60.85;102085.91;4932776;28;114473;-80
2023/04/16 04:17:35;;;;;;;36.63;10.95;;;;;;;12.41;60.82;102087.63;4934563;28;114132;-80
2023/04/16 04:20:03;;;;;;;29.85;11.50;;;;;;;12.39;61.03;102097.44;4928939;28;123998;-80
2023/04/16 04:22:31;;;;;;;31.85;11.32;;;;;;;12.40;60.76;102091.22;4929875;28;124015;-79
2023/04/16 04:24:58;;;;;;;30.45;10.60;;;;;;;12.40;60.84;102092.09;4930042;28;113985;-80
2023/04/16 04:27:27;;;;;;;30.98;10.50;;;;;;;12.41;60.80;102096.50;4928094;28;114730;-81
2023/04/16 04:29:55;;;;;;;34.05;10.90;;;;;;;12.41;60.79;102100.91;4945579;27;122231;-79
2023/04/16 04:32:23;;;;;;;26.65;10.75;;;;;;;12.41;60.90;102098.25;4932739;28;122466;-78
2023/04/16 04:34:50;;;;;;;25.48;10.32;;;;;;;12.41;60.94;102098.25;4950063;28;113710;-80
2023/04/16 04:37:18;;;;;;;30.63;10.43;;;;;;;12.41;60.97;102108.88;4933379;28;114391;-78
2023/04/16 04:39:45;;;;;;;26.92;10.30;;;;;;;12.41;60.83;102103.56;4928481;28;122032;-79
2023/04/16 04:42:12;;;;;;;30.60;11.27;;;;;;;12.40;61.11;102101.84;4928165;28;123140;-79
2023/04/16 04:44:40;;;;;;;30.40;10.07;;;;;;;12.40;61.20;102115.13;4926454;28;113596;-80
2023/04/16 04:47:08;;;;;;;31.90;10.70;;;;;;;12.41;61.06;102114.19;4927887;28;114234;-79
2023/04/16 04:49:35;;;;;;;32.63;11.20;;;;;;;12.40;60.96;102123.09;4945791;28;122635;-79
2023/04/16 04:52:03;;;;;;;23.73;10.82;;;;;;;12.39;61.04;102116.03;4929428;28;96730;-78
2023/04/16 04:54:31;;;;;;;32.70;11.63;;;;;;;12.39;61.13;102121.34;4946613;28;114485;-80
2023/04/16 04:56:59;;;;;;;33.55;11.48;;;;;;;12.40;61.30;102120.44;4934660;28;114963;-80
2023/04/16 04:59:28;;;;;;;34.70;12.15;;;;;;;12.39;61.12;102121.34;4943833;28;123478;-80
2023/04/16 05:01:55;;;;;;;31.35;11.45;;;;;;;12.39;61.20;102126.66;4935641;28;123596;-80
2023/04/16 05:04:22;;;;;;;30.90;12.27;;;;;;;12.40;61.32;102128.41;4949256;28;114273;-79
2023/04/16 05:06:49;;;;;;;31.42;12.65;;;;;;;12.39;61.33;102126.66;4932831;28;113961;-80
2023/04/16 05:09:17;;;;;;;29.38;11.88;;;;;;;12.39;61.14;102127.53;4932490;28;124043;-80
2023/04/16 05:11:44;;;;;;;30.05;12.25;;;;;;;12.40;61.36;102131.06;4929159;28;124461;-80
2023/04/16 05:14:11;;;;;;;33.53;12.43;;;;;;;12.40;61.28;102136.38;4930296;28;113658;-80
2023/04/16 05:16:38;;;;;;;36.00;13.55;;;;;;;12.39;61.14;102137.28;4929717;28;112619;-80
2023/04/16 05:19:05;;;;;;;33.90;12.93;;;;;;;12.38;61.14;102140.88;4928391;28;123982;-80
2023/04/16 05:21:34;;;;;;;38.70;13.25;;;;;;;12.38;61.30;102135.56;4945252;28;121568;-79
2023/04/16 05:24:11;;;;;;;36.10;13.18;;;;;;;12.38;61.15;102138.22;4933679;28;114046;-79
2023/04/16 05:26:41;;;;;;;32.47;13.27;;;;;;;12.37;61.21;102140.00;4928692;28;114103;-79
2023/04/16 05:29:08;;;;;;;27.60;13.23;;;;;;;12.38;61.14;102141.75;4926975;28;123863;-79
2023/04/16 05:31:35;;;;;;;36.33;14.10;;;;;;;12.38;61.30;102136.44;4936864;28;122929;-79
2023/04/16 05:34:02;;;;;;;31.50;14.23;;;;;;;12.38;61.27;102146.19;4932065;28;113339;-79
2023/04/16 05:36:30;;;;;;;35.80;13.95;;;;;;;12.35;61.39;102146.28;4928190;28;114170;-79
2023/04/16 05:38:57;;;;;;;33.90;13.90;;;;;;;12.35;61.47;102143.63;4942596;28;123874;-79
2023/04/16 05:41:24;;;;;;;40.42;14.25;;;;;;;12.34;61.30;102145.44;4943711;28;122190;-78
2023/04/16 05:43:51;;;;;;;47.33;14.23;;;;;;;12.37;61.20;102149.75;4953272;28;116259;-80
2023/04/16 05:46:18;;;;;;;32.83;14.65;;;;;;;12.35;61.42;102146.28;4924772;28;112830;-80
2023/04/16 05:48:46;;;;;;;36.35;14.95;;;;;;;12.39;61.60;102150.59;4943308;28;123301;-80
2023/04/16 05:51:13;;;;;;;35.22;14.15;;;;;;;12.39;61.49;102153.25;4946618;28;124393;-78
2023/04/16 05:53:40;;;;;;;29.60;14.43;;;;;;;12.40;61.36;102155.00;4948920;28;115092;-79
2023/04/16 05:56:08;;;;;;;31.40;14.30;;;;;;;12.42;61.37;102158.47;4949314;28;114561;-80
2023/04/16 05:58:35;;;;;;;35.45;13.80;;;;;;;12.44;61.39;102156.63;4948868;28;123783;-80
2023/04/16 06:01:02;;;;;;;33.00;14.68;;;;;;;12.44;61.62;102151.31;4949514;28;125722;-79
2023/04/16 06:03:29;;;;;;;33.72;14.52;;;;;;;12.46;61.49;102157.44;4953726;28;115245;-80
2023/04/16 06:05:57;;;;;;;35.10;14.73;;;;;;;12.48;61.26;102158.25;4967439;27;114003;-79
2023/04/16 06:08:24;;;;;;;34.70;14.23;;;;;;;12.50;61.59;102151.09;4933421;28;122558;-78
2023/04/16 06:10:52;;;;;;;29.73;13.32;;;;;;;12.52;61.45;102159.91;4937242;28;123669;-79
2023/04/16 06:13:19;;;;;;;31.13;13.77;;;;;;;12.54;61.58;102163.38;4939352;28;114075;-79
2023/04/16 06:15:46;;;;;;;31.02;13.45;;;;;;;12.55;61.53;102159.81;4938564;28;112475;-79
2023/04/16 06:18:14;;;;;;;31.75;13.70;;;;;;;12.57;61.39;102168.59;4937688;28;122819;-78
2023/04/16 06:20:41;;;;;;;36.28;13.75;;;;;;;12.58;61.60;102170.34;4934953;28;123515;-79
2023/04/16 06:23:08;;;;;;;31.67;12.70;;;;;;;12.59;61.31;102169.41;4933519;28;114273;-79
2023/04/16 06:25:35;;;;;;;29.98;13.52;;;;;;;12.59;61.40;102166.75;4945716;28;113721;-79
2023/04/16 06:28:03;;;;;;;23.48;11.77;;;;;;;12.60;61.41;102179.16;4941487;28;123844;-80
2023/04/16 06:30:30;;;;;;;23.35;11.88;;;;;;;12.60;61.50;102173.84;4950192;28;122904;-80
2023/04/16 06:32:57;;;;;;;25.67;11.30;;;;;;;12.62;61.39;102179.97;4927854;28;114845;-80
2023/04/16 06:35:24;;;;;;;28.98;12.57;;;;;;;12.62;61.34;102179.06;4945117;28;115202;-80
2023/04/16 06:37:51;;;;;;;24.73;11.35;;;;;;;12.64;61.37;102196.72;4929709;28;123334;-79
2023/04/16 06:40:18;;;;;;;23.80;12.15;;;;;;;12.65;61.35;102198.44;4938110;28;124270;-80
2023/04/16 06:42:46;;;;;;;29.65;11.93;;;;;;;12.66;61.35;102189.56;4940125;28;114573;-80
2023/04/16 06:45:13;;;;;;;24.88;11.57;;;;;;;12.66;61.24;102200.19;4937797;28;112346;-80
2023/04/16 06:47:40;;;;;;;27.83;12.05;;;;;;;12.69;61.34;102203.69;4957444;28;124600;-80
2023/04/16 06:50:07;;;;;;;27.83;11.82;;;;;;;12.70;61.35;102205.44;4955936;28;123348;-79
2023/04/16 06:52:35;;;;;;;28.02;11.68;;;;;;;12.72;61.40;102211.56;4943272;28;114930;-80
2023/04/16 06:55:02;;;;;;;32.67;13.00;;;;;;;12.77;61.31;102206.94;4945481;28;112630;-80
2023/04/16 06:57:29;;;;;;;26.83;12.35;;;;;;;12.79;61.37;102207.75;4945609;28;124525;-80
2023/04/16 06:59:56;;;;;;;29.95;12.23;;;;;;;12.81;61.34;102208.63;4946666;28;124662;-80
2023/04/16 07:02:23;;;;;;;27.63;12.65;;;;;;;12.83;61.28;102212.09;4957615;28;113463;-80
2023/04/16 07:04:51;;;;;;;31.63;12.70;;;;;;;12.82;61.26;102211.19;4946041;28;113446;-80
2023/04/16 07:07:18;;;;;;;27.25;11.80;;;;;;;12.84;61.26;102219.13;4946394;28;123677;-80
2023/04/16 07:09:45;;;;;;;33.25;13.15;;;;;;;12.84;61.24;102213.81;4943560;28;122866;-80
2023/04/16 07:12:12;;;;;;;28.27;12.98;;;;;;;12.87;61.20;102224.34;4938232;28;114260;-81
2023/04/16 07:14:40;;;;;;;28.02;13.20;;;;;;;12.89;61.19;102219.84;4935951;28;112589;-80
2023/04/16 07:17:07;;;;;;;29.02;12.88;;;;;;;12.90;61.21;102234.88;4947855;28;125614;-80
2023/04/16 07:19:34;;;;;;;30.60;13.63;;;;;;;12.92;61.66;102227.75;4945901;28;125910;-79
2023/04/16 07:22:01;;;;;;;36.80;13.52;;;;;;;12.97;61.29;102231.09;4943921;28;113705;-80
2023/04/16 07:24:29;;;;;;;28.05;13.02;;;;;;;13.02;61.14;102234.50;4943058;28;115285;-79
2023/04/16 07:26:56;;;;;;;29.60;13.55;;;;;;;13.07;61.14;102236.13;4945299;28;123462;-80
2023/04/16 07:29:23;;;;;;;31.48;13.90;;;;;;;13.10;61.11;102238.69;4962044;28;125409;-80
2023/04/16 07:31:51;;;;;;;27.75;13.50;;;;;;;13.13;61.27;102233.25;4945110;28;112700;-79
2023/04/16 07:34:18;;;;;;;27.27;13.98;;;;;;;13.17;61.15;102232.25;4942590;28;114043;-80
2023/04/16 07:36:45;;;;;;;26.05;13.13;;;;;;;13.21;61.13;102237.41;4941086;28;124262;-80
2023/04/16 07:39:12;;;;;;;27.17;13.70;;;;;;;13.27;61.03;102231.00;4940968;28;123715;-80
2023/04/16 07:41:40;;;;;;;23.55;12.65;;;;;;;13.31;60.96;102240.66;4944026;28;113938;-80
2023/04/16 07:44:07;;;;;;;28.52;13.63;;;;;;;13.32;60.85;102242.41;4942003;28;112590;-80
2023/04/16 07:46:34;;;;;;;28.20;14.07;;;;;;;13.35;60.85;102247.59;4941082;28;124323;-81
2023/04/16 07:49:13;;;;;;;25.38;12.65;;;;;;;13.37;60.65;102251.09;4941260;28;124295;-81
2023/04/16 07:51:40;;;;;;;26.42;13.75;;;;;;;13.39;60.64;102249.25;4941605;28;114835;-81
2023/04/16 07:54:07;;;;;;;26.58;13.68;;;;;;;13.42;60.46;102259.78;4938194;28;113861;-79
2023/04/16 07:56:34;;;;;;;24.05;13.23;;;;;;;13.44;60.59;102268.56;4939144;28;122538;-80
2023/04/16 07:59:02;;;;;;;23.58;13.20;;;;;;;13.44;60.47;102263.25;4937611;28;123433;-81
2023/04/16 08:01:47;;;;;;;;;;;;;;;13.47;60.38;102261.41;4905880;28;112517;-80
2023/04/16 08:04:18;;;;;;;27.42;13.73;;;;;;;13.51;60.24;102263.06;4933768;28;114597;-80
2023/04/16 08:06:46;;;;;;;26.95;14.10;;;;;;;13.54;60.33;102268.28;4938454;28;123154;-81
2023/04/16 08:09:13;;;;;;;24.80;13.68;;;;;;;13.55;60.13;102270.88;4939037;28;124109;-80
2023/04/16 08:11:40;;;;;;;28.63;13.68;;;;;;;13.57;60.24;102270.84;4937236;28;115045;-81
2023/04/16 08:14:07;;;;;;;26.80;14.32;;;;;;;13.58;60.39;102278.78;4938720;28;114041;-80
2023/04/16 08:16:34;;;;;;;26.17;14.00;;;;;;;13.60;60.37;102276.06;4937418;28;123256;-80
2023/04/16 08:19:02;;;;;;;25.80;14.93;;;;;;;13.62;60.34;102283.06;4938984;28;124205;-80
2023/04/16 08:21:30;;;;;;;22.75;13.32;;;;;;;13.66;60.37;102275.84;4934827;28;112549;-80
2023/04/16 08:23:57;;;;;;;24.20;14.00;;;;;;;13.73;60.38;102285.34;4934019;28;114513;-80
2023/04/16 08:26:24;;;;;;;27.25;15.10;;;;;;;13.78;60.19;102294.03;4932677;28;123857;-80
2023/04/16 08:28:52;;;;;;;29.20;13.68;;;;;;;13.82;60.10;102284.16;4947310;28;123760;-81
2023/04/16 08:31:19;;;;;;;26.70;14.15;;;;;;;13.86;60.29;102290.22;4931514;28;114927;-82
2023/04/16 08:33:46;;;;;;;27.23;14.50;;;;;;;13.89;60.16;102290.13;4934323;28;112370;-78
2023/04/16 08:36:13;;;;;;;25.98;14.52;;;;;;;13.95;60.05;102289.91;4939873;28;124081;-81
2023/04/16 08:38:40;;;;;;;29.80;14.85;;;;;;;14.00;60.13;102288.81;4946782;28;123488;-80
2023/04/16 08:41:11;;;;;;;25.00;13.98;;;;;;;14.05;59.89;102296.63;4932526;28;115172;-80
2023/04/16 08:43:43;;;;;;;25.92;13.55;;;;;;;14.09;59.85;102298.28;4930675;28;114351;-81
2023/04/16 08:46:11;;;;;;;25.58;13.88;;;;;;;14.12;59.77;102298.16;4915759;28;123727;-81
2023/04/16 08:48:41;;;;;;;26.50;14.38;;;;;;;14.15;59.63;102303.38;4933971;28;122288;-80
2023/04/16 08:51:10;;;;;;;26.08;13.75;;;;;;;14.18;59.44;102308.59;4948649;28;114128;-81
2023/04/16 08:54:01;;;;;;;27.70;14.52;;;;;;;14.21;59.43;102308.47;4949242;28;114283;-80
2023/04/16 08:56:30;;;;;;;25.20;14.30;;;;;;;14.24;59.43;102312.84;4927468;28;124336;-81
2023/04/16 08:59:00;;;;;;;26.00;13.18;;;;;;;14.29;59.35;102310.00;4928143;28;123612;-80
2023/04/16 09:01:28;;;;;;;26.70;13.90;;;;;;;14.33;59.36;102311.59;4946425;28;115069;-81
2023/04/16 09:03:55;;;;;;;29.08;14.63;;;;;;;14.34;59.25;102318.69;4932867;28;115024;-80
2023/04/16 09:06:23;;;;;;;28.83;14.48;;;;;;;14.36;59.21;102316.84;4935462;28;123686;-80
2023/04/16 09:08:52;;;;;;;28.13;15.07;;;;;;;14.37;58.85;102319.44;4931895;28;124180;-80
2023/04/16 09:11:19;;;;;;;26.13;13.43;;;;;;;14.39;59.27;102316.69;4935494;28;115199;-80
2023/04/16 09:13:46;;;;;;;25.73;14.15;;;;;;;14.43;59.11;102318.34;4934707;28;112730;-79
2023/04/16 09:16:14;;;;;;;24.23;13.10;;;;;;;14.46;59.09;102322.69;4936009;28;123624;-82
2023/04/16 09:18:41;;;;;;;27.25;13.77;;;;;;;14.50;59.16;102314.50;4938270;28;122861;-80
2023/04/16 09:21:09;;;;;;;22.92;13.73;;;;;;;14.53;59.38;102319.72;4941307;28;113554;-82
2023/04/16 09:23:40;;;;;;;24.27;14.15;;;;;;;14.59;58.75;102324.00;4957936;28;113051;-82
2023/04/16 09:26:07;;;;;;;25.42;14.50;;;;;;;14.66;59.03;102320.16;4925198;28;123085;-82
2023/04/16 09:28:45;;;;;;;23.95;13.85;;;;;;;14.74;58.70;102327.88;4941283;28;124064;-81
2023/04/16 09:31:14;;;;;;;29.90;14.15;;;;;;;14.79;58.51;102331.22;4936976;28;113308;-80
2023/04/16 09:33:43;;;;;;;25.38;13.68;;;;;;;14.83;58.38;102322.19;4959654;28;112179;-83
2023/04/16 09:36:10;;;;;;;27.15;13.98;;;;;;;14.88;58.23;102325.53;4936591;28;122319;-85
2023/04/16 09:38:52;;;;;;;26.67;14.25;;;;;;;14.92;58.35;102332.50;4946113;28;123731;-84
2023/04/16 09:41:27;;;;;;;26.20;14.05;;;;;;;14.97;58.15;102335.84;4940819;28;114773;-83
2023/04/16 09:43:57;;;;;;;26.08;14.60;;;;;;;15.01;58.03;102339.25;4933882;28;113719;-82
2023/04/16 09:46:30;;;;;;;25.33;14.40;;;;;;;15.05;58.10;102337.31;4943676;28;123408;-81
2023/04/16 09:49:04;;;;;;;27.13;14.95;;;;;;;15.06;58.06;102344.41;4938788;28;124450;-80
2023/04/16 09:51:46;;;;;;;25.35;14.93;;;;;;;15.09;57.90;102338.97;4921919;28;114235;-81
2023/04/16 09:54:13;;;;;;;25.88;14.85;;;;;;;15.13;58.00;102345.91;4948986;28;115320;-81
2023/04/16 09:56:45;;;;;;;27.13;15.73;;;;;;;15.18;58.03;102344.78;4937074;28;123610;-85
2023/04/16 09:59:19;;;;;;;27.67;14.35;;;;;;;15.26;57.78;102344.47;4920759;28;123049;-79
2023/04/16 10:01:53;;;;;;;27.88;15.20;;;;;;;15.36;57.96;102348.50;4939938;28;114740;-80
2023/04/16 10:04:48;;;;;;;27.95;15.20;;;;;;;15.45;57.51;102344.59;4935708;28;114383;-84
2023/04/16 10:07:16;;;;;;;26.83;14.77;;;;;;;15.54;57.91;102340.69;4936050;28;124213;-79
2023/04/16 10:09:44;;;;;;;26.80;15.35;;;;;;;15.61;57.64;102336.78;4936936;28;123808;-82
2023/04/16 10:12:11;;;;;;;24.17;14.65;;;;;;;15.69;57.08;102345.38;4934904;28;114512;-82
2023/04/16 10:14:39;;;;;;;29.83;15.65;;;;;;;15.73;57.10;102347.00;4936882;28;113495;-81
2023/04/16 10:17:07;;;;;;;28.80;15.13;;;;;;;15.77;57.04;102353.94;4953331;28;123110;-82
2023/04/16 10:19:35;;;;;;;25.38;14.73;;;;;;;15.85;56.81;102345.59;4976573;28;123582;-81
2023/04/16 10:22:02;;;;;;;28.20;15.45;;;;;;;15.93;57.10;102342.59;4955381;28;114446;-83
2023/04/16 10:24:32;;;;;;;27.35;15.57;;;;;;;16.01;56.50;102335.13;4930342;28;115578;-83
2023/04/16 10:26:59;;;;;;;27.50;14.80;;;;;;;16.09;56.33;102346.34;4916722;28;123270;-83
2023/04/16 10:29:28;;;;;;;24.95;14.68;;;;;;;16.15;56.12;102338.03;4934442;28;123377;-81
2023/04/16 10:31:56;;;;;;;26.02;14.80;;;;;;;16.24;56.08;102341.25;4932952;28;115175;-83
2023/04/16 10:34:24;;;;;;;29.15;16.33;;;;;;;16.33;55.89;102340.81;4931132;28;114068;-83
2023/04/16 10:36:53;;;;;;;27.00;16.08;;;;;;;16.40;55.96;102342.28;4932542;28;125020;-82
2023/04/16 10:39:26;;;;;;;26.33;15.13;;;;;;;16.45;55.83;102340.28;4916721;28;123320;-81
2023/04/16 10:42:10;;;;;;;26.85;16.00;;;;;;;16.49;55.90;102344.53;4914921;28;114411;-82
2023/04/16 10:44:39;;;;;;;25.20;16.03;;;;;;;16.57;55.86;102349.53;4932623;28;115872;-81
2023/04/16 10:47:12;;;;;;;26.20;16.05;;;;;;;16.61;55.49;102344.91;4919365;28;123596;-82
2023/04/16 10:49:41;;;;;;;28.67;16.80;;;;;;;16.69;55.71;102348.13;4930383;28;122906;-85
2023/04/16 10:52:11;;;;;;;29.55;16.40;;;;;;;16.78;55.77;102347.66;4930852;28;113644;-83
2023/04/16 10:54:39;;;;;;;26.88;15.55;;;;;;;16.89;55.88;102340.00;4931006;28;114308;-83
2023/04/16 10:57:16;;;;;;;22.13;14.65;;;;;;;16.97;55.23;102336.09;4926765;28;124343;-83
2023/04/16 10:59:44;;;;;;;28.38;16.35;;;;;;;17.00;54.84;102341.34;4941520;28;124433;-83
2023/04/16 11:02:15;;;;;;;28.77;16.38;;;;;;;17.01;54.86;102337.69;4923631;28;113710;-84
2023/04/16 11:04:44;;;;;;;27.08;16.35;;;;;;;17.03;54.89;102335.84;4945187;28;114097;-84
2023/04/16 11:07:17;;;;;;;32.10;16.05;;;;;;;17.08;54.82;102339.13;4929245;28;122462;-83
2023/04/16 11:09:51;;;;;;;26.23;16.10;;;;;;;17.12;54.52;102330.00;4926681;28;122313;-83